sensor_id;sensor_type;location;lat;lon;timestamp;pressure;altitude;pressure_sealevel;temperature;humidity
23321;BME280;33376;51.306;4.752;2023-02-16T00:01:21;102543.84;;;3.59;100.00
23321;BME280;33376;51.306;4.752;2023-02-16T00:03:48;102542.97;;;3.61;100.00
23321;BME280;33376;51.306;4.752;2023-02-16T00:06:13;102535.97;;;3.63;100.00
23321;BME280;33376;51.306;4.752;2023-02-16T00:08:46;102532.47;;;3.64;100.00
23321;BME280;33376;51.306;4.752;2023-02-16T00:11:14;102532.47;;;3.58;100.00
23321;BME280;33376;51.306;4.752;2023-02-16T00:13:59;102523.72;;;3.52;100.00
23321;BME280;33376;51.306;4.752;2023-02-16T00:16:24;102529.84;;;3.48;100.00
23321;BME280;33376;51.306;4.752;2023-02-16T00:18:50;102533.34;;;3.72;100.00
23321;BME280;33376;51.306;4.752;2023-02-16T00:21:15;102536.84;;;3.59;100.00
23321;BME280;33376;51.306;4.752;2023-02-16T00:23:41;102533.34;;;3.63;100.00
23321;BME280;33376;51.306;4.752;2023-02-16T00:29:01;102529.84;;;3.57;100.00
23321;BME280;33376;51.306;4.752;2023-02-16T00:31:27;102533.34;;;3.57;100.00
23321;BME280;33376;51.306;4.752;2023-02-16T00:33:56;102533.31;;;3.53;100.00
23321;BME280;33376;51.306;4.752;2023-02-16T00:36:21;102528.13;;;3.57;100.00
23321;BME280;33376;51.306;4.752;2023-02-16T00:38:46;102523.72;;;3.59;100.00
23321;BME280;33376;51.306;4.752;2023-02-16T00:41:22;102530.72;;;3.62;100.00
23321;BME280;33376;51.306;4.752;2023-02-16T00:44:11;102524.59;;;3.61;100.00
23321;BME280;33376;51.306;4.752;2023-02-16T00:46:38;102521.97;;;3.61;100.00
23321;BME280;33376;51.306;4.752;2023-02-16T00:49:03;102509.72;;;3.53;100.00
23321;BME280;33376;51.306;4.752;2023-02-16T00:51:29;102515.00;;;3.57;100.00
23321;BME280;33376;51.306;4.752;2023-02-16T00:53:54;102515.00;;;3.56;100.00
23321;BME280;33376;51.306;4.752;2023-02-16T00:56:19;102507.09;;;3.53;100.00
23321;BME280;33376;51.306;4.752;2023-02-16T00:58:45;102508.00;;;3.50;100.00
23321;BME280;33376;51.306;4.752;2023-02-16T01:01:12;102490.50;;;3.55;100.00
23321;BME280;33376;51.306;4.752;2023-02-16T01:03:38;102488.78;;;3.62;100.00
23321;BME280;33376;51.306;4.752;2023-02-16T01:06:03;102484.38;;;3.50;100.00
23321;BME280;33376;51.306;4.752;2023-02-16T01:08:47;102481.78;;;3.49;100.00
23321;BME280;33376;51.306;4.752;2023-02-16T01:11:31;102486.13;;;3.35;100.00
23321;BME280;33376;51.306;4.752;2023-02-16T01:13:56;102488.75;;;3.36;100.00
23321;BME280;33376;51.306;4.752;2023-02-16T01:16:24;102479.16;;;3.49;100.00
23321;BME280;33376;51.306;4.752;2023-02-16T01:18:49;102484.41;;;3.43;100.00
23321;BME280;33376;51.306;4.752;2023-02-16T01:21:16;102478.25;;;3.47;100.00
23321;BME280;33376;51.306;4.752;2023-02-16T01:23:41;102473.03;;;3.45;100.00
23321;BME280;33376;51.306;4.752;2023-02-16T01:26:10;102474.78;;;3.57;100.00
23321;BME280;33376;51.306;4.752;2023-02-16T01:28:36;102464.28;;;3.69;100.00
23321;BME280;33376;51.306;4.752;2023-02-16T01:31:01;102446.75;;;3.80;100.00
23321;BME280;33376;51.306;4.752;2023-02-16T01:33:27;102454.66;;;3.77;100.00
23321;BME280;33376;51.306;4.752;2023-02-16T01:35:52;102457.28;;;3.74;100.00
23321;BME280;33376;51.306;4.752;2023-02-16T01:38:23;102456.41;;;3.76;100.00
23321;BME280;33376;51.306;4.752;2023-02-16T01:41:12;102452.00;;;3.98;100.00
23321;BME280;33376;51.306;4.752;2023-02-16T01:43:57;102445.88;;;4.03;100.00
23321;BME280;33376;51.306;4.752;2023-02-16T01:46:48;102448.50;;;3.94;100.00
23321;BME280;33376;51.306;4.752;2023-02-16T01:49:15;102448.50;;;4.00;100.00
23321;BME280;33376;51.306;4.752;2023-02-16T01:54:35;102435.38;;;3.91;100.00
23321;BME280;33376;51.306;4.752;2023-02-16T01:57:05;102438.88;;;3.93;100.00
23321;BME280;33376;51.306;4.752;2023-02-16T02:02:18;102430.13;;;4.03;100.00
23321;BME280;33376;51.306;4.752;2023-02-16T02:04:49;102424.88;;;4.06;100.00
23321;BME280;33376;51.306;4.752;2023-02-16T02:13:19;102414.38;;;3.97;100.00
23321;BME280;33376;51.306;4.752;2023-02-16T02:15:45;102416.91;;;4.24;100.00
23321;BME280;33376;51.306;4.752;2023-02-16T02:18:10;102406.44;;;4.15;100.00
23321;BME280;33376;51.306;4.752;2023-02-16T02:31:06;102405.59;;;4.09;100.00
23321;BME280;33376;51.306;4.752;2023-02-16T02:33:44;102396.88;;;4.10;100.00
23321;BME280;33376;51.306;4.752;2023-02-16T02:39:00;102403.00;;;4.00;100.00
23321;BME280;33376;51.306;4.752;2023-02-16T02:41:34;102396.88;;;3.98;100.00
23321;BME280;33376;51.306;4.752;2023-02-16T02:44:21;102397.84;;;3.68;100.00
23321;BME280;33376;51.306;4.752;2023-02-16T02:46:47;102401.31;;;3.70;100.00
23321;BME280;33376;51.306;4.752;2023-02-16T02:49:13;102413.56;;;3.79;100.00
23321;BME280;33376;51.306;4.752;2023-02-16T02:51:38;102400.47;;;3.65;100.00
23321;BME280;33376;51.306;4.752;2023-02-16T02:57:02;102407.47;;;3.51;100.00
23321;BME280;33376;51.306;4.752;2023-02-16T02:59:52;102417.97;;;3.38;100.00
23321;BME280;33376;51.306;4.752;2023-02-16T03:02:38;102418.84;;;3.16;100.00
23321;BME280;33376;51.306;4.752;2023-02-16T03:05:04;102417.09;;;3.36;100.00
23321;BME280;33376;51.306;4.752;2023-02-16T03:07:32;102397.84;;;3.65;100.00
23321;BME280;33376;51.306;4.752;2023-02-16T03:10:24;102408.34;;;3.56;100.00
23321;BME280;33376;51.306;4.752;2023-02-16T03:13:11;102400.47;;;3.64;100.00
23321;BME280;33376;51.306;4.752;2023-02-16T03:15:37;102394.34;;;3.65;100.00
23321;BME280;33376;51.306;4.752;2023-02-16T03:18:05;102398.69;;;3.67;100.00
23321;BME280;33376;51.306;4.752;2023-02-16T03:20:50;102394.34;;;3.71;100.00
23321;BME280;33376;51.306;4.752;2023-02-16T03:23:33;102387.31;;;3.77;100.00
23321;BME280;33376;51.306;4.752;2023-02-16T03:26:18;102393.47;;;3.76;100.00
23321;BME280;33376;51.306;4.752;2023-02-16T03:29:02;102382.09;;;3.76;100.00
23321;BME280;33376;51.306;4.752;2023-02-16T03:31:47;102384.72;;;3.76;100.00
23321;BME280;33376;51.306;4.752;2023-02-16T03:34:13;102383.84;;;3.81;100.00
23321;BME280;33376;51.306;4.752;2023-02-16T03:36:41;102376.81;;;3.82;100.00
23321;BME280;33376;51.306;4.752;2023-02-16T03:39:07;102386.44;;;3.83;100.00
23321;BME280;33376;51.306;4.752;2023-02-16T03:41:34;102378.56;;;3.89;100.00
23321;BME280;33376;51.306;4.752;2023-02-16T03:44:02;102380.34;;;3.79;100.00
23321;BME280;33376;51.306;4.752;2023-02-16T03:46:27;102395.22;;;3.56;100.00
23321;BME280;33376;51.306;4.752;2023-02-16T03:48:52;102397.84;;;3.55;100.00
23321;BME280;33376;51.306;4.752;2023-02-16T03:51:17;102399.59;;;3.50;100.00
23321;BME280;33376;51.306;4.752;2023-02-16T03:53:43;102388.22;;;3.58;100.00
23321;BME280;33376;51.306;4.752;2023-02-16T03:56:09;102397.84;;;3.59;100.00
23321;BME280;33376;51.306;4.752;2023-02-16T03:58:34;102396.97;;;3.68;100.00
23321;BME280;33376;51.306;4.752;2023-02-16T04:00:59;102388.22;;;3.78;100.00
23321;BME280;33376;51.306;4.752;2023-02-16T04:03:25;102382.09;;;3.77;100.00
23321;BME280;33376;51.306;4.752;2023-02-16T04:05:50;102381.22;;;3.72;100.00
23321;BME280;33376;51.306;4.752;2023-02-16T04:08:15;102390.81;;;3.87;100.00
23321;BME280;33376;51.306;4.752;2023-02-16T04:10:41;102394.31;;;3.84;100.00
23321;BME280;33376;51.306;4.752;2023-02-16T04:13:06;102396.06;;;3.81;100.00
23321;BME280;33376;51.306;4.752;2023-02-16T04:15:31;102396.00;;;3.97;100.00
23321;BME280;33376;51.306;4.752;2023-02-16T04:17:57;102396.06;;;3.84;100.00
23321;BME280;33376;51.306;4.752;2023-02-16T04:20:24;102389.91;;;3.88;100.00
23321;BME280;33376;51.306;4.752;2023-02-16T04:22:50;102390.75;;;4.06;100.00
23321;BME280;33376;51.306;4.752;2023-02-16T04:25:15;102403.00;;;4.03;100.00
23321;BME280;33376;51.306;4.752;2023-02-16T04:27:41;102391.66;;;3.96;100.00
23321;BME280;33376;51.306;4.752;2023-02-16T04:30:08;102402.13;;;4.02;100.00
23321;BME280;33376;51.306;4.752;2023-02-16T04:32:35;102406.44;;;4.20;100.00
23321;BME280;33376;51.306;4.752;2023-02-16T04:35:00;102395.94;;;4.17;100.00
23321;BME280;33376;51.306;4.752;2023-02-16T04:37:27;102400.38;;;4.04;100.00
23321;BME280;33376;51.306;4.752;2023-02-16T04:39:53;102388.16;;;4.02;100.00
23321;BME280;33376;51.306;4.752;2023-02-16T04:42:18;102391.63;;;4.10;100.00
23321;BME280;33376;51.306;4.752;2023-02-16T04:44:43;102399.38;;;4.35;100.00
23321;BME280;33376;51.306;4.752;2023-02-16T04:47:08;102422.09;;;4.44;100.00
23321;BME280;33376;51.306;4.752;2023-02-16T04:49:34;102409.88;;;4.40;100.00
23321;BME280;33376;51.306;4.752;2023-02-16T04:51:59;102394.84;;;4.62;100.00
23321;BME280;33376;51.306;4.752;2023-02-16T04:54:25;102399.25;;;4.57;100.00
23321;BME280;33376;51.306;4.752;2023-02-16T04:56:53;102400.88;;;4.83;100.00
23321;BME280;33376;51.306;4.752;2023-02-16T04:59:18;102395.63;;;4.77;100.00
23321;BME280;33376;51.306;4.752;2023-02-16T05:01:43;102398.25;;;4.83;100.00
23321;BME280;33376;51.306;4.752;2023-02-16T05:04:09;102397.28;;;4.93;100.00
23321;BME280;33376;51.306;4.752;2023-02-16T05:06:35;102391.03;;;5.09;100.00
23321;BME280;33376;51.306;4.752;2023-02-16T05:09:01;102397.16;;;5.11;100.00
23321;BME280;33376;51.306;4.752;2023-02-16T05:11:26;102390.19;;;5.09;100.00
23321;BME280;33376;51.306;4.752;2023-02-16T05:14:17;102391.19;;;4.85;100.00
23321;BME280;33376;51.306;4.752;2023-02-16T05:17:02;102379.78;;;4.92;100.00
23321;BME280;33376;51.306;4.752;2023-02-16T05:19:27;102379.78;;;4.91;100.00
23321;BME280;33376;51.306;4.752;2023-02-16T05:21:52;102371.72;;;5.16;100.00
23321;BME280;33376;51.306;4.752;2023-02-16T05:24:18;102361.06;;;5.33;100.00
23321;BME280;33376;51.306;4.752;2023-02-16T05:26:43;102362.00;;;5.26;100.00
23321;BME280;33376;51.306;4.752;2023-02-16T05:29:08;102358.69;;;4.98;100.00
23321;BME280;33376;51.306;4.752;2023-02-16T05:31:33;102360.25;;;5.22;100.00
23321;BME280;33376;51.306;4.752;2023-02-16T05:33:59;102381.47;;;5.02;100.00
23321;BME280;33376;51.306;4.752;2023-02-16T05:36:24;102372.75;;;4.97;100.00
23321;BME280;33376;51.306;4.752;2023-02-16T05:38:49;102370.00;;;5.08;100.00
23321;BME280;33376;51.306;4.752;2023-02-16T05:41:15;102367.44;;;5.00;100.00
23321;BME280;33376;51.306;4.752;2023-02-16T05:43:54;102371.00;;;4.98;100.00
23321;BME280;33376;51.306;4.752;2023-02-16T05:46:20;102384.09;;;5.02;100.00
23321;BME280;33376;51.306;4.752;2023-02-16T05:48:46;102381.34;;;5.16;100.00
23321;BME280;33376;51.306;4.752;2023-02-16T05:51:11;102383.09;;;5.17;100.00
23321;BME280;33376;51.306;4.752;2023-02-16T05:53:36;102374.31;;;5.18;100.00
23321;BME280;33376;51.306;4.752;2023-02-16T05:56:02;102375.22;;;5.18;100.00
23321;BME280;33376;51.306;4.752;2023-02-16T05:58:27;102372.53;;;5.24;100.00
23321;BME280;33376;51.306;4.752;2023-02-16T06:00:53;102370.88;;;5.10;100.00
23321;BME280;33376;51.306;4.752;2023-02-16T06:03:18;102368.06;;;5.34;100.00
23321;BME280;33376;51.306;4.752;2023-02-16T06:05:43;102377.69;;;5.33;100.00
23321;BME280;33376;51.306;4.752;2023-02-16T06:08:08;102397.97;;;5.19;100.00
23321;BME280;33376;51.306;4.752;2023-02-16T06:10:34;102410.22;;;5.19;100.00
23321;BME280;33376;51.306;4.752;2023-02-16T06:12:59;102416.38;;;5.18;100.00
23321;BME280;33376;51.306;4.752;2023-02-16T06:15:24;102411.88;;;5.33;100.00
23321;BME280;33376;51.306;4.752;2023-02-16T06:17:49;102403.97;;;5.35;100.00
23321;BME280;33376;51.306;4.752;2023-02-16T06:20:15;102405.78;;;5.33;100.00
23321;BME280;33376;51.306;4.752;2023-02-16T06:22:40;102401.34;;;5.33;100.00
23321;BME280;33376;51.306;4.752;2023-02-16T06:25:05;102392.63;;;5.33;100.00
23321;BME280;33376;51.306;4.752;2023-02-16T06:27:30;102403.16;;;5.28;100.00
23321;BME280;33376;51.306;4.752;2023-02-16T06:29:56;102393.44;;;5.41;100.00
23321;BME280;33376;51.306;4.752;2023-02-16T06:32:21;102405.69;;;5.40;100.00
23321;BME280;33376;51.306;4.752;2023-02-16T06:34:46;102407.44;;;5.40;100.00
23321;BME280;33376;51.306;4.752;2023-02-16T06:37:11;102400.41;;;5.43;100.00
23321;BME280;33376;51.306;4.752;2023-02-16T06:39:36;102414.47;;;5.41;100.00
23321;BME280;33376;51.306;4.752;2023-02-16T06:42:02;102416.22;;;5.39;100.00
23321;BME280;33376;51.306;4.752;2023-02-16T06:44:27;102417.06;;;5.39;100.00
23321;BME280;33376;51.306;4.752;2023-02-16T06:46:52;102432.84;;;5.45;100.00
23321;BME280;33376;51.306;4.752;2023-02-16T06:49:18;102417.88;;;5.47;100.00
23321;BME280;33376;51.306;4.752;2023-02-16T06:51:44;102424.00;;;5.49;100.00
23321;BME280;33376;51.306;4.752;2023-02-16T06:54:09;102417.84;;;5.53;100.00
23321;BME280;33376;51.306;4.752;2023-02-16T06:56:34;102413.53;;;5.46;100.00
23321;BME280;33376;51.306;4.752;2023-02-16T06:59:00;102409.06;;;5.54;100.00
23321;BME280;33376;51.306;4.752;2023-02-16T07:01:25;102416.88;;;5.62;100.00
23321;BME280;33376;51.306;4.752;2023-02-16T07:03:51;102427.47;;;5.56;100.00
23321;BME280;33376;51.306;4.752;2023-02-16T07:06:17;102433.66;;;5.49;100.00
23321;BME280;33376;51.306;4.752;2023-02-16T07:08:42;102428.41;;;5.52;100.00
23321;BME280;33376;51.306;4.752;2023-02-16T07:11:07;102427.41;;;5.60;100.00
23321;BME280;33376;51.306;4.752;2023-02-16T07:13:32;102426.50;;;5.67;100.00
23321;BME280;33376;51.306;4.752;2023-02-16T07:16:00;102427.34;;;5.66;100.00
23321;BME280;33376;51.306;4.752;2023-02-16T07:18:25;102430.84;;;5.70;100.00
23321;BME280;33376;51.306;4.752;2023-02-16T07:20:51;102425.56;;;5.71;100.00
23321;BME280;33376;51.306;4.752;2023-02-16T07:23:16;102432.53;;;5.77;100.00
23321;BME280;33376;51.306;4.752;2023-02-16T07:25:41;102432.56;;;5.75;100.00
23321;BME280;33376;51.306;4.752;2023-02-16T07:28:06;102434.28;;;5.78;100.00
23321;BME280;33376;51.306;4.752;2023-02-16T07:30:32;102415.81;;;5.87;100.00
23321;BME280;33376;51.306;4.752;2023-02-16T07:32:57;102426.34;;;5.85;100.00
23321;BME280;33376;51.306;4.752;2023-02-16T07:35:22;102419.31;;;5.84;100.00
23321;BME280;33376;51.306;4.752;2023-02-16T07:37:47;102429.78;;;5.90;100.00
23321;BME280;33376;51.306;4.752;2023-02-16T07:40:12;102439.44;;;5.91;100.00
23321;BME280;33376;51.306;4.752;2023-02-16T07:42:38;102435.00;;;5.97;100.00
23321;BME280;33376;51.306;4.752;2023-02-16T07:45:03;102442.94;;;5.93;100.00
23321;BME280;33376;51.306;4.752;2023-02-16T07:47:28;102435.81;;;6.00;100.00
23321;BME280;33376;51.306;4.752;2023-02-16T07:49:53;102436.72;;;5.99;100.00
23321;BME280;33376;51.306;4.752;2023-02-16T07:52:19;102432.28;;;6.04;100.00
23321;BME280;33376;51.306;4.752;2023-02-16T07:54:44;102442.66;;;6.18;100.00
23321;BME280;33376;51.306;4.752;2023-02-16T07:57:10;102438.16;;;6.27;100.00
23321;BME280;33376;51.306;4.752;2023-02-16T07:59:35;102447.72;;;6.36;100.00
23321;BME280;33376;51.306;4.752;2023-02-16T08:02:01;102451.19;;;6.41;100.00
23321;BME280;33376;51.306;4.752;2023-02-16T08:04:26;102455.50;;;6.46;100.00
23321;BME280;33376;51.306;4.752;2023-02-16T08:06:51;102457.88;;;6.66;100.00
23321;BME280;33376;51.306;4.752;2023-02-16T08:09:16;102466.66;;;6.68;100.00
23321;BME280;33376;51.306;4.752;2023-02-16T08:11:42;102464.59;;;6.88;100.00
23321;BME280;33376;51.306;4.752;2023-02-16T08:14:07;102466.31;;;6.92;100.00
23321;BME280;33376;51.306;4.752;2023-02-16T08:16:33;102470.63;;;6.97;100.00
23321;BME280;33376;51.306;4.752;2023-02-16T08:18:59;102477.53;;;7.07;100.00
23321;BME280;33376;51.306;4.752;2023-02-16T08:21:26;102483.53;;;7.17;100.00
23321;BME280;33376;51.306;4.752;2023-02-16T08:26:17;102500.16;;;7.23;100.00
23321;BME280;33376;51.306;4.752;2023-02-16T08:28:43;102505.47;;;7.20;100.00
23321;BME280;33376;51.306;4.752;2023-02-16T08:31:12;102512.56;;;7.17;100.00
23321;BME280;33376;51.306;4.752;2023-02-16T08:33:37;102506.50;;;7.09;100.00
23321;BME280;33376;51.306;4.752;2023-02-16T08:36:03;102511.75;;;7.12;100.00
23321;BME280;33376;51.306;4.752;2023-02-16T08:38:28;102525.84;;;7.09;100.00
23321;BME280;33376;51.306;4.752;2023-02-16T08:40:53;102524.97;;;7.09;100.00
23321;BME280;33376;51.306;4.752;2023-02-16T08:43:19;102552.13;;;7.17;100.00
23321;BME280;33376;51.306;4.752;2023-02-16T08:45:45;102548.59;;;7.19;100.00
23321;BME280;33376;51.306;4.752;2023-02-16T08:48:11;102560.81;;;7.23;100.00
23321;BME280;33376;51.306;4.752;2023-02-16T08:50:37;102556.28;;;7.34;100.00
23321;BME280;33376;51.306;4.752;2023-02-16T08:53:02;102563.50;;;7.22;100.00
23321;BME280;33376;51.306;4.752;2023-02-16T08:55:27;102559.91;;;7.27;100.00
23321;BME280;33376;51.306;4.752;2023-02-16T08:57:52;102560.81;;;7.23;100.00
23321;BME280;33376;51.306;4.752;2023-02-16T09:00:18;102556.47;;;7.21;100.00
23321;BME280;33376;51.306;4.752;2023-02-16T09:02:58;102572.44;;;7.10;100.00
23321;BME280;33376;51.306;4.752;2023-02-16T09:05:24;102565.50;;;7.05;100.00
23321;BME280;33376;51.306;4.752;2023-02-16T09:07:49;102567.22;;;7.06;100.00
23321;BME280;33376;51.306;4.752;2023-02-16T09:10:16;102567.22;;;7.06;100.00
23321;BME280;33376;51.306;4.752;2023-02-16T09:12:42;102562.88;;;7.03;100.00
23321;BME280;33376;51.306;4.752;2023-02-16T09:15:07;102563.72;;;7.04;100.00
23321;BME280;33376;51.306;4.752;2023-02-16T09:17:33;102554.00;;;7.07;100.00
23321;BME280;33376;51.306;4.752;2023-02-16T09:19:58;102550.47;;;7.08;100.00
23321;BME280;33376;51.306;4.752;2023-02-16T09:22:23;102533.69;;;7.15;100.00
23321;BME280;33376;51.306;4.752;2023-02-16T09:24:48;102517.66;;;7.30;100.00
23321;BME280;33376;51.306;4.752;2023-02-16T09:27:14;102513.19;;;7.32;100.00
23321;BME280;33376;51.306;4.752;2023-02-16T09:29:39;102506.09;;;7.37;100.00
23321;BME280;33376;51.306;4.752;2023-02-16T09:32:04;102498.13;;;7.40;100.00
23321;BME280;33376;51.306;4.752;2023-02-16T09:34:30;102497.16;;;7.47;100.00
23321;BME280;33376;51.306;4.752;2023-02-16T09:36:55;102494.44;;;7.51;100.00
23321;BME280;33376;51.306;4.752;2023-02-16T09:39:22;102486.41;;;7.58;100.00
23321;BME280;33376;51.306;4.752;2023-02-16T09:47:03;102487.59;;;7.92;100.00
23321;BME280;33376;51.306;4.752;2023-02-16T09:49:40;102479.69;;;7.91;100.00
23321;BME280;33376;51.306;4.752;2023-02-16T09:52:17;102472.63;;;7.93;100.00
23321;BME280;33376;51.306;4.752;2023-02-16T09:54:51;102473.34;;;8.02;100.00
23321;BME280;33376;51.306;4.752;2023-02-16T09:57:30;102474.25;;;8.00;100.00
23321;BME280;33376;51.306;4.752;2023-02-16T10:08:12;102476.25;;;8.36;100.00
23321;BME280;33376;51.306;4.752;2023-02-16T10:10:43;102472.69;;;8.37;100.00
23321;BME280;33376;51.306;4.752;2023-02-16T10:13:13;102476.47;;;8.24;100.00
23321;BME280;33376;51.306;4.752;2023-02-16T10:15:40;102470.44;;;8.14;100.00
23321;BME280;33376;51.306;4.752;2023-02-16T10:20:43;102466.13;;;8.10;100.00
23321;BME280;33376;51.306;4.752;2023-02-16T10:25:44;102483.13;;;7.96;100.00
23321;BME280;33376;51.306;4.752;2023-02-16T10:28:16;102485.84;;;7.93;100.00
23321;BME280;33376;51.306;4.752;2023-02-16T10:30:44;102481.28;;;8.01;100.00
23321;BME280;33376;51.306;4.752;2023-02-16T10:33:26;102489.19;;;8.02;100.00
23321;BME280;33376;51.306;4.752;2023-02-16T10:35:59;102483.00;;;8.03;100.00
23321;BME280;33376;51.306;4.752;2023-02-16T10:43:20;102481.94;;;8.13;100.00
23321;BME280;33376;51.306;4.752;2023-02-16T10:45:49;102475.66;;;8.19;100.00
23321;BME280;33376;51.306;4.752;2023-02-16T10:48:15;102472.13;;;8.20;100.00
23321;BME280;33376;51.306;4.752;2023-02-16T10:53:39;102471.16;;;8.25;100.00
23321;BME280;33376;51.306;4.752;2023-02-16T10:58:50;102474.16;;;8.51;100.00
23321;BME280;33376;51.306;4.752;2023-02-16T11:01:19;102471.16;;;8.68;100.00
23321;BME280;33376;51.306;4.752;2023-02-16T11:03:47;102474.50;;;8.76;100.00
23321;BME280;33376;51.306;4.752;2023-02-16T11:06:13;102465.47;;;8.86;100.00
23321;BME280;33376;51.306;4.752;2023-02-16T11:08:46;102458.09;;;9.00;100.00
23321;BME280;33376;51.306;4.752;2023-02-16T11:11:12;102458.72;;;9.13;100.00
23321;BME280;33376;51.306;4.752;2023-02-16T11:13:38;102455.31;;;9.44;100.00
23321;BME280;33376;51.306;4.752;2023-02-16T11:16:09;102451.06;;;9.72;100.00
23321;BME280;33376;51.306;4.752;2023-02-16T11:18:40;102430.81;;;10.03;100.00
23321;BME280;33376;51.306;4.752;2023-02-16T11:21:07;102425.00;;;10.21;100.00
23321;BME280;33376;51.306;4.752;2023-02-16T11:23:39;102415.47;;;10.16;100.00
23321;BME280;33376;51.306;4.752;2023-02-16T11:31:00;102414.72;;;10.71;100.00
23321;BME280;33376;51.306;4.752;2023-02-16T11:33:26;102411.41;;;10.64;100.00
23321;BME280;33376;51.306;4.752;2023-02-16T11:35:52;102427.13;;;10.70;100.00
23321;BME280;33376;51.306;4.752;2023-02-16T11:38:28;102432.34;;;10.73;100.00
23321;BME280;33376;51.306;4.752;2023-02-16T11:40:54;102431.16;;;10.83;100.00
23321;BME280;33376;51.306;4.752;2023-02-16T11:43:20;102436.75;;;11.02;100.00
23321;BME280;33376;51.306;4.752;2023-02-16T11:45:55;102445.97;;;10.90;100.00
23321;BME280;33376;51.306;4.752;2023-02-16T11:48:28;102449.97;;;11.03;100.00
23321;BME280;33376;51.306;4.752;2023-02-16T11:53:25;102466.34;;;11.17;100.00
23321;BME280;33376;51.306;4.752;2023-02-16T11:55:51;102467.06;;;11.22;100.00
23321;BME280;33376;51.306;4.752;2023-02-16T11:58:32;102480.63;;;11.41;100.00
23321;BME280;33376;51.306;4.752;2023-02-16T12:01:01;102488.78;;;11.62;100.00
23321;BME280;33376;51.306;4.752;2023-02-16T12:06:12;102502.69;;;11.43;100.00
23321;BME280;33376;51.306;4.752;2023-02-16T12:11:28;102522.91;;;11.76;100.00
23321;BME280;33376;51.306;4.752;2023-02-16T12:18:58;102556.31;;;12.11;100.00
23321;BME280;33376;51.306;4.752;2023-02-16T12:21:33;102567.56;;;12.19;100.00
23321;BME280;33376;51.306;4.752;2023-02-16T12:39:17;102581.47;;;11.73;100.00
23321;BME280;33376;51.306;4.752;2023-02-16T12:41:54;102585.47;;;11.86;100.00
23321;BME280;33376;51.306;4.752;2023-02-16T12:44:44;102586.25;;;11.90;100.00
23321;BME280;33376;51.306;4.752;2023-02-16T12:47:10;102582.22;;;12.04;100.00
23321;BME280;33376;51.306;4.752;2023-02-16T12:54:35;102588.94;;;12.16;100.00
23321;BME280;33376;51.306;4.752;2023-02-16T12:57:07;102578.25;;;12.17;100.00
23321;BME280;33376;51.306;4.752;2023-02-16T12:59:50;102579.91;;;12.46;100.00
23321;BME280;33376;51.306;4.752;2023-02-16T13:02:21;102590.72;;;12.40;100.00
23321;BME280;33376;51.306;4.752;2023-02-16T13:08:18;102584.50;;;12.65;100.00
23321;BME280;33376;51.306;4.752;2023-02-16T13:10:53;102576.47;;;12.91;100.00
23321;BME280;33376;51.306;4.752;2023-02-16T13:13:24;102573.16;;;13.09;100.00
23321;BME280;33376;51.306;4.752;2023-02-16T13:15:54;102573.56;;;12.97;100.00
23321;BME280;33376;51.306;4.752;2023-02-16T13:18:23;102562.41;;;13.34;100.00
23321;BME280;33376;51.306;4.752;2023-02-16T13:20:52;102564.81;;;13.18;100.00
23321;BME280;33376;51.306;4.752;2023-02-16T13:25:57;102549.19;;;13.09;100.00
23321;BME280;33376;51.306;4.752;2023-02-16T13:36:39;102531.38;;;13.10;100.00
23321;BME280;33376;51.306;4.752;2023-02-16T13:41:41;102506.75;;;13.05;100.00
23321;BME280;33376;51.306;4.752;2023-02-16T13:44:14;102498.22;;;12.95;100.00
23321;BME280;33376;51.306;4.752;2023-02-16T13:46:49;102506.94;;;12.99;100.00
23321;BME280;33376;51.306;4.752;2023-02-16T13:51:54;102505.25;;;13.19;100.00
23321;BME280;33376;51.306;4.752;2023-02-16T13:54:24;102501.44;;;13.05;100.00
23321;BME280;33376;51.306;4.752;2023-02-16T13:56:50;102483.09;;;13.19;100.00
23321;BME280;33376;51.306;4.752;2023-02-16T14:01:41;102495.91;;;13.09;100.00
23321;BME280;33376;51.306;4.752;2023-02-16T14:12:03;102462.56;;;13.23;100.00
23321;BME280;33376;51.306;4.752;2023-02-16T14:23:19;102449.22;;;13.44;100.00
23321;BME280;33376;51.306;4.752;2023-02-16T14:27:45;102443.13;;;13.41;100.00
23321;BME280;33376;51.306;4.752;2023-02-16T14:30:21;102437.94;;;13.38;100.00
23321;BME280;33376;51.306;4.752;2023-02-16T14:32:50;102424.75;;;13.35;100.00
23321;BME280;33376;51.306;4.752;2023-02-16T14:35:22;102427.22;;;13.61;100.00
23321;BME280;33376;51.306;4.752;2023-02-16T14:37:55;102420.59;;;13.69;100.00
23321;BME280;33376;51.306;4.752;2023-02-16T14:43:09;102399.41;;;13.66;100.00
23321;BME280;33376;51.306;4.752;2023-02-16T14:45:42;102403.63;;;13.30;100.00
23321;BME280;33376;51.306;4.752;2023-02-16T14:51:11;102411.34;;;13.36;100.00
23321;BME280;33376;51.306;4.752;2023-02-16T14:56:14;102421.59;;;13.25;100.00
23321;BME280;33376;51.306;4.752;2023-02-16T15:01:20;102431.53;;;12.98;100.00
23321;BME280;33376;51.306;4.752;2023-02-16T15:06:16;102442.31;;;12.72;100.00
23321;BME280;33376;51.306;4.752;2023-02-16T15:08:42;102454.00;;;12.68;100.00
23321;BME280;33376;51.306;4.752;2023-02-16T15:11:13;102466.25;;;12.72;100.00
23321;BME280;33376;51.306;4.752;2023-02-16T15:13:39;102477.91;;;12.70;100.00
23321;BME280;33376;51.306;4.752;2023-02-16T15:16:05;102489.69;;;12.63;100.00
23321;BME280;33376;51.306;4.752;2023-02-16T15:18:38;102500.84;;;12.49;100.00
23321;BME280;33376;51.306;4.752;2023-02-16T15:21:04;102506.47;;;12.40;100.00
23321;BME280;33376;51.306;4.752;2023-02-16T15:23:31;102505.06;;;12.30;100.00
23321;BME280;33376;51.306;4.752;2023-02-16T15:26:02;102525.44;;;12.31;100.00
23321;BME280;33376;51.306;4.752;2023-02-16T15:28:29;102535.13;;;12.08;100.00